Time;durP1;ratioP1;P1;durP2;ratioP2;P2;SDS_P1;SDS_P2;PMS_P1;PMS_P2;Temp;Humidity;BMP_temperature;BMP_pressure;BME280_temperature;BME280_humidity;BME280_pressure;Samples;Min_cycle;Max_cycle;Signal;HPM_P1;HPM_P2
2022/08/31 00:06:27;;;;;;;33.40;24.25;;;;;;;17.67;93.56;97691.41;10330431;28;20072;-55
2022/08/31 00:11:28;;;;;;;33.88;24.35;;;;;;;17.67;93.98;97694.03;10330141;28;20073;-55
2022/08/31 00:16:31;;;;;;;31.48;23.23;;;;;;;17.66;94.23;97691.44;10330196;28;20092;-55
2022/08/31 00:21:31;;;;;;;29.95;21.63;;;;;;;17.58;94.21;97683.81;10328895;28;20076;-55
2022/08/31 00:26:30;;;;;;;26.92;20.73;;;;;;;17.66;94.16;97684.47;10329906;28;20057;-56
2022/08/31 00:31:29;;;;;;;32.25;22.08;;;;;;;17.67;93.81;97694.03;10329318;28;20095;-55
2022/08/31 00:36:28;;;;;;;26.27;19.95;;;;;;;17.65;94.02;97687.97;10329885;28;20069;-55
2022/08/31 00:41:29;;;;;;;28.42;21.60;;;;;;;17.72;93.71;97683.41;10328423;28;20053;-55
2022/08/31 00:46:31;;;;;;;24.83;20.15;;;;;;;17.80;93.64;97685.81;10327891;28;20076;-55
2022/08/31 00:51:35;;;;;;;22.85;18.98;;;;;;;17.88;92.77;97681.19;10328464;28;20107;-56
2022/08/31 00:56:35;;;;;;;26.00;20.60;;;;;;;17.81;92.50;97662.16;10329003;28;20071;-55
2022/08/31 01:01:34;;;;;;;26.23;21.40;;;;;;;17.88;92.55;97683.81;10328767;28;20088;-55
2022/08/31 01:06:33;;;;;;;26.48;20.10;;;;;;;17.73;93.02;97685.09;10328420;28;20335;-55
2022/08/31 01:11:35;;;;;;;30.33;20.25;;;;;;;17.47;93.78;97684.16;10327145;28;20360;-55
2022/08/31 01:16:37;;;;;;;30.17;21.10;;;;;;;17.22;94.24;97678.75;10336524;28;20467;-55
2022/08/31 01:21:54;;;;;;;28.48;21.50;;;;;;;17.14;94.54;97672.84;10336121;28;20085;-55
2022/08/31 01:26:59;;;;;;;29.92;23.15;;;;;;;17.14;94.84;97667.63;10335707;28;20069;-55
2022/08/31 01:31:58;;;;;;;29.92;23.38;;;;;;;17.09;94.78;97667.75;10335954;28;20141;-55
2022/08/31 01:36:58;;;;;;;27.30;22.45;;;;;;;17.13;94.98;97668.53;10335597;28;20083;-55
2022/08/31 01:41:57;;;;;;;29.10;22.70;;;;;;;17.09;95.04;97669.53;10336152;28;20076;-55
2022/08/31 01:46:56;;;;;;;31.38;24.92;;;;;;;17.09;94.88;97677.38;10335636;28;20073;-55
2022/08/31 01:51:55;;;;;;;32.10;24.83;;;;;;;17.06;95.17;97677.47;10334884;28;20061;-56
2022/08/31 01:56:54;;;;;;;32.20;23.42;;;;;;;17.01;95.15;97667.13;10335076;28;20037;-55
2022/08/31 02:01:54;;;;;;;32.80;24.42;;;;;;;16.98;95.49;97671.56;10334667;28;20072;-55
2022/08/31 02:06:57;;;;;;;34.78;25.40;;;;;;;16.96;95.73;97666.41;10334151;28;20080;-55
2022/08/31 02:11:56;;;;;;;36.42;25.83;;;;;;;16.99;95.97;97665.44;10334849;28;20057;-55
2022/08/31 02:16:55;;;;;;;35.78;26.42;;;;;;;17.00;96.20;97662.75;10334288;28;20068;-56
2022/08/31 02:21:54;;;;;;;38.92;28.98;;;;;;;17.00;96.25;97654.03;10334104;28;20073;-55
2022/08/31 02:26:53;;;;;;;38.08;28.17;;;;;;;17.02;96.62;97660.97;10333175;28;20057;-55
2022/08/31 02:31:52;;;;;;;;;;;;;;;17.02;96.78;97650.47;10334036;28;20029;-55
2022/08/31 02:36:51;;;;;;;38.23;27.63;;;;;;;17.03;96.68;97651.34;10334247;28;19998;-56
2022/08/31 02:41:50;;;;;;;40.20;28.65;;;;;;;17.01;96.88;97650.53;10333242;28;20499;-55
2022/08/31 02:46:48;;;;;;;;;;;;;;;17.01;96.86;97653.16;10333858;28;20057;-56
2022/08/31 02:51:47;;;;;;;38.93;27.93;;;;;;;16.93;97.01;97656.88;10333042;28;19909;-55
2022/08/31 02:56:46;;;;;;;;;;;;;;;16.88;97.41;97656.09;10332851;28;20044;-56
2022/08/31 03:01:46;;;;;;;42.33;28.47;;;;;;;16.84;97.79;97651.00;10333462;28;19955;-56
2022/08/31 03:06:46;;;;;;;42.00;28.95;;;;;;;16.86;97.71;97652.69;10332403;28;20093;-56
2022/08/31 03:11:45;;;;;;;41.05;30.17;;;;;;;16.88;97.84;97668.34;10332113;28;20076;-55
2022/08/31 03:16:44;;;;;;;41.10;28.45;;;;;;;16.84;97.83;97649.25;10332482;28;20041;-55
2022/08/31 03:21:45;;;;;;;43.50;28.50;;;;;;;16.86;98.15;97651.81;10331334;28;20091;-56
2022/08/31 03:26:44;;;;;;;39.65;28.38;;;;;;;16.86;98.06;97655.31;10331354;28;20076;-56
2022/08/31 03:31:43;;;;;;;40.72;27.50;;;;;;;16.87;97.81;97661.41;10331622;28;20049;-55
2022/08/31 03:36:42;;;;;;;38.55;27.55;;;;;;;16.83;97.62;97650.13;10330277;28;20029;-55
2022/08/31 03:41:41;;;;;;;;;;;;;;;16.84;97.63;97653.59;10331524;28;20041;-56
2022/08/31 03:46:44;;;;;;;33.50;25.53;;;;;;;16.82;97.51;97656.28;10331078;28;20387;-55
2022/08/31 03:51:44;;;;;;;44.38;26.95;;;;;;;16.74;97.60;97655.59;10331422;28;20084;-55
2022/08/31 03:56:43;;;;;;;35.78;25.73;;;;;;;16.60;98.12;97639.41;10329720;28;20076;-55
2022/08/31 04:01:43;;;;;;;35.72;25.63;;;;;;;16.55;98.13;97643.91;10331017;28;20065;-55
2022/08/31 04:06:43;;;;;;;33.30;24.58;;;;;;;16.22;100.00;97662.22;10330167;28;20065;-55
2022/08/31 04:11:43;;;;;;;33.67;24.63;;;;;;;15.92;100.00;97663.81;10329687;28;20100;-55
2022/08/31 04:16:42;;;;;;;92.95;33.10;;;;;;;15.87;100.00;97658.69;10328569;28;20483;-55
2022/08/31 04:21:42;;;;;;;;;;;;;;;15.90;100.00;97668.22;10329401;28;20533;-55
2022/08/31 04:26:42;;;;;;;37.60;24.92;;;;;;;15.99;100.00;97661.00;10328763;28;19971;-55
2022/08/31 04:31:41;;;;;;;39.13;26.05;;;;;;;16.11;100.00;97662.47;10329394;28;20084;-55
2022/08/31 04:37:08;;;;;;;33.03;25.77;;;;;;;16.22;100.00;97668.31;10329475;28;20071;-55
2022/08/31 04:42:09;;;;;;;38.00;26.20;;;;;;;16.29;100.00;97664.63;10325428;28;20136;-56
2022/08/31 04:47:08;;;;;;;57.47;26.13;;;;;;;16.17;100.00;97661.47;10328083;28;20076;-55
2022/08/31 04:52:07;;;;;;;37.88;26.83;;;;;;;16.20;100.00;97666.63;10330139;28;20036;-55
2022/08/31 04:57:06;;;;;;;35.40;27.05;;;;;;;16.41;100.00;97670.47;10328874;28;20073;-58
2022/08/31 05:02:05;;;;;;;40.33;28.38;;;;;;;16.64;100.00;97669.84;10330301;28;20069;-55
2022/08/31 05:07:04;;;;;;;44.38;29.83;;;;;;;16.82;100.00;97672.03;10329157;28;20084;-56
2022/08/31 05:12:03;;;;;;;37.15;27.45;;;;;;;17.00;100.00;97667.16;10327898;28;20140;-56
2022/08/31 05:17:05;;;;;;;35.53;27.30;;;;;;;17.14;99.74;97667.63;10329921;28;20062;-56
2022/08/31 05:22:04;;;;;;;36.13;27.70;;;;;;;17.14;99.20;97671.13;10330097;28;20908;-56
2022/08/31 05:27:03;;;;;;;35.20;27.02;;;;;;;17.12;99.30;97669.41;10328576;28;20108;-56
2022/08/31 05:32:03;;;;;;;35.83;28.50;;;;;;;17.14;99.20;97649.25;10325754;28;20088;-56
2022/08/31 05:37:03;;;;;;;34.22;27.85;;;;;;;17.29;98.88;97661.94;10329170;28;20091;-56
2022/08/31 05:42:02;;;;;;;37.65;28.90;;;;;;;17.42;98.81;97654.56;10329858;28;20064;-56
2022/08/31 05:47:04;;;;;;;37.35;29.77;;;;;;;17.63;98.38;97653.03;10329208;28;20500;-57
2022/08/31 05:52:04;;;;;;;37.28;28.10;;;;;;;17.89;97.11;97648.78;10329477;28;20076;-57
2022/08/31 05:57:03;;;;;;;35.42;27.05;;;;;;;18.04;96.55;97640.41;10315980;28;20057;-57
2022/08/31 06:02:03;;;;;;;33.38;26.92;;;;;;;18.23;96.04;97647.69;10293391;28;20061;-57
2022/08/31 06:07:02;;;;;;;31.50;26.17;;;;;;;18.40;95.45;97640.06;10326426;28;20136;-57
2022/08/31 06:12:02;;;;;;;31.58;24.58;;;;;;;18.57;94.61;97637.75;10334338;28;20068;-57
2022/08/31 06:17:01;;;;;;;35.22;25.48;;;;;;;18.76;93.79;97637.09;10333615;28;20157;-57
2022/08/31 06:22:00;;;;;;;29.77;24.30;;;;;;;18.79;92.94;97635.22;10336576;28;20029;-57
2022/08/31 06:27:01;;;;;;;30.33;24.23;;;;;;;19.01;92.18;97637.91;10334889;28;20562;-57
2022/08/31 06:32:06;;;;;;;32.35;25.38;;;;;;;19.25;91.47;97635.28;10334458;28;20072;-57
2022/08/31 06:37:07;;;;;;;30.20;24.58;;;;;;;19.49;90.45;97643.19;10330788;28;20074;-57
2022/08/31 06:42:06;;;;;;;32.53;24.20;;;;;;;19.67;89.49;97647.72;10327063;28;20076;-57
2022/08/31 06:47:05;;;;;;;30.33;23.48;;;;;;;19.86;89.21;97646.09;10365980;28;20069;-57
2022/08/31 06:52:04;;;;;;;26.67;22.40;;;;;;;20.08;88.00;97638.19;10335305;28;20076;-57
2022/08/31 06:57:04;;;;;;;24.42;20.83;;;;;;;20.35;87.53;97642.34;10309545;28;20053;-57
2022/08/31 07:02:03;;;;;;;26.58;21.27;;;;;;;20.54;86.12;97638.06;10331926;28;20775;-57
2022/08/31 07:07:04;;;;;;;27.20;21.05;;;;;;;20.59;84.72;97635.22;10333771;28;20650;-57
2022/08/31 07:12:04;;;;;;;26.95;20.98;;;;;;;20.76;84.47;97645.03;10332577;28;20583;-57
2022/08/31 07:17:03;;;;;;;24.45;20.88;;;;;;;21.01;84.17;97643.03;10334123;28;20068;-57
2022/08/31 07:22:04;;;;;;;28.40;20.73;;;;;;;21.29;82.78;97644.44;10335144;28;20069;-57
2022/08/31 07:27:11;;;;;;;27.30;20.20;;;;;;;21.53;82.05;97638.00;10333396;28;20069;-57
2022/08/31 07:32:13;;;;;;;24.77;18.88;;;;;;;21.56;80.03;97637.00;10331554;28;20076;-56
2022/08/31 07:42:32;;;;;;;22.55;18.00;;;;;;;21.84;78.80;97636.53;10320063;28;20065;-56
2022/08/31 07:47:31;;;;;;;21.45;16.77;;;;;;;22.03;77.83;97633.88;10333025;28;20073;-56
2022/08/31 07:52:32;;;;;;;21.35;14.90;;;;;;;22.27;76.56;97639.78;10333318;28;20088;-56
2022/08/31 07:57:41;;;;;;;16.10;13.93;;;;;;;22.44;74.67;97630.97;10318929;28;20112;-56
2022/08/31 08:02:44;;;;;;;17.70;13.40;;;;;;;22.59;74.21;97624.88;10333020;28;20077;-56
2022/08/31 08:07:43;;;;;;;18.35;13.75;;;;;;;22.80;73.78;97627.38;10331377;28;20164;-57
2022/08/31 08:12:47;;;;;;;16.70;13.63;;;;;;;23.09;73.20;97628.50;10330446;28;20033;-57
2022/08/31 08:17:46;;;;;;;17.10;12.93;;;;;;;23.61;71.16;97622.16;10329925;28;20065;-57
2022/08/31 08:22:45;;;;;;;18.55;13.27;;;;;;;23.98;68.81;97615.63;10329610;28;20033;-57
2022/08/31 08:27:44;;;;;;;13.73;11.77;;;;;;;24.35;65.83;97624.09;10330525;28;20072;-57
2022/08/31 08:32:43;;;;;;;14.85;12.48;;;;;;;24.62;63.19;97613.66;10329872;28;20115;-57
2022/08/31 08:37:46;;;;;;;13.65;11.70;;;;;;;24.79;62.04;97615.28;10305624;28;20068;-57
2022/08/31 08:42:46;;;;;;;15.30;12.60;;;;;;;25.01;62.50;97608.69;10329803;28;20068;-58
2022/08/31 08:47:48;;;;;;;12.88;11.52;;;;;;;25.19;60.40;97606.69;10330627;28;20068;-57
2022/08/31 08:52:47;;;;;;;14.02;11.85;;;;;;;25.62;61.62;97599.56;10329877;28;20076;-57
2022/08/31 08:57:50;;;;;;;13.13;10.90;;;;;;;25.83;58.64;97591.09;10314626;28;20065;-57
2022/08/31 09:02:56;;;;;;;11.90;10.70;;;;;;;25.77;58.55;97586.22;10352270;28;20479;-57
2022/08/31 09:08:36;;;;;;;13.82;11.93;;;;;;;25.69;58.40;97589.34;10370615;28;20080;-56
2022/08/31 09:13:44;;;;;;;15.15;12.30;;;;;;;25.46;59.10;97572.22;10320858;28;20121;-56
2022/08/31 09:18:58;;;;;;;15.38;12.00;;;;;;;25.51;58.32;97575.44;10319080;28;20155;-56
2022/08/31 09:24:05;;;;;;;14.57;11.98;;;;;;;25.64;59.12;97556.91;10330637;28;20067;-57
2022/08/31 09:29:04;;;;;;;13.68;10.77;;;;;;;25.71;54.98;97550.25;10331067;28;20444;-56
2022/08/31 09:34:12;;;;;;;13.45;10.57;;;;;;;25.75;54.94;97557.06;10331749;28;20068;-56
2022/08/31 09:39:18;;;;;;;16.17;10.88;;;;;;;25.81;56.03;97547.81;10337624;28;20503;-57
2022/08/31 09:44:31;;;;;;;15.75;11.38;;;;;;;26.29;56.06;97538.38;10336151;28;20080;-57
2022/08/31 09:49:37;;;;;;;15.25;11.18;;;;;;;26.82;54.30;97529.47;10332068;28;20117;-57
2022/08/31 09:59:54;;;;;;;14.13;10.60;;;;;;;26.58;52.79;97507.13;10296269;28;20053;-57
2022/08/31 10:04:59;;;;;;;11.70;10.50;;;;;;;26.89;52.60;97501.47;10296119;28;20507;-56
2022/08/31 10:10:07;;;;;;;12.50;10.77;;;;;;;27.01;52.09;97487.28;10310762;28;20065;-57
2022/08/31 10:15:16;;;;;;;15.13;10.65;;;;;;;27.33;51.38;97473.41;10336300;28;20072;-57
2022/08/31 10:20:38;;;;;;;11.55;10.20;;;;;;;27.54;50.74;97458.53;10335891;28;20099;-57
2022/08/31 10:25:45;;;;;;;11.93;10.13;;;;;;;27.73;49.94;97452.66;10336427;28;20080;-57
2022/08/31 10:30:51;;;;;;;11.73;9.90;;;;;;;27.97;48.30;97454.44;10300772;28;20125;-57
2022/08/31 10:35:56;;;;;;;12.80;11.13;;;;;;;28.08;49.27;97449.16;10335928;28;20077;-57
2022/08/31 10:41:12;;;;;;;11.85;10.02;;;;;;;28.32;47.82;97440.22;10334070;28;20870;-57
2022/08/31 10:46:14;;;;;;;13.52;10.60;;;;;;;28.47;47.07;97444.31;10332528;28;20084;-56
2022/08/31 10:51:28;;;;;;;12.88;10.65;;;;;;;28.22;46.74;97440.06;10337265;28;20072;-56
2022/08/31 10:56:57;;;;;;;13.40;10.98;;;;;;;27.49;49.22;97443.84;10331492;28;20071;-56
2022/08/31 11:02:26;;;;;;;13.63;10.77;;;;;;;26.77;52.55;97464.06;10306318;28;20080;-58
2022/08/31 11:07:27;;;;;;;13.27;10.17;;;;;;;25.49;55.18;97484.34;10290715;28;20523;-56
2022/08/31 11:12:39;;;;;;;15.75;9.10;;;;;;;24.81;55.67;97480.69;10323352;28;20306;-57
2022/08/31 11:17:44;;;;;;;11.93;7.32;;;;;;;24.10;56.64;97499.19;10328683;28;20076;-57
2022/08/31 11:23:10;;;;;;;10.70;7.22;;;;;;;23.57;57.60;97533.22;10328752;28;20073;-57
2022/08/31 11:28:27;;;;;;;16.30;11.45;;;;;;;22.34;68.67;97566.25;10330548;28;20072;-57
2022/08/31 11:33:30;;;;;;;21.70;13.10;;;;;;;20.75;76.16;97564.19;10331856;28;20175;-56
2022/08/31 11:38:51;;;;;;;27.50;16.23;;;;;;;20.01;83.73;97583.19;10330138;28;20065;-56
2022/08/31 11:43:51;;;;;;;22.30;15.88;;;;;;;19.60;85.99;97594.50;10330269;28;20091;-56
2022/08/31 11:48:50;;;;;;;21.77;15.93;;;;;;;19.42;87.67;97611.81;10330329;28;20081;-56
2022/08/31 11:53:50;;;;;;;21.65;16.40;;;;;;;19.35;89.68;97626.13;10330152;28;20073;-56
2022/08/31 11:59:34;;;;;;;24.80;16.67;;;;;;;19.28;90.30;97608.88;10329278;28;20076;-56
2022/08/31 12:04:45;;;;;;;20.05;16.10;;;;;;;19.10;92.11;97585.91;10329467;28;20892;-56
2022/08/31 12:09:53;;;;;;;19.92;16.38;;;;;;;19.06;92.97;97553.59;10329595;28;20241;-56
2022/08/31 12:15:26;;;;;;;23.23;15.65;;;;;;;19.16;93.69;97549.72;10329008;28;20056;-56
2022/08/31 12:26:06;;;;;;;23.15;17.23;;;;;;;19.13;94.79;97602.41;10329821;28;20065;-56
2022/08/31 12:31:13;;;;;;;18.33;14.15;;;;;;;18.97;94.35;97603.91;10329176;28;20518;-56
2022/08/31 12:36:16;;;;;;;17.67;14.13;;;;;;;18.94;94.96;97583.84;10329288;28;20073;-56
2022/08/31 12:41:15;;;;;;;16.92;14.02;;;;;;;18.98;95.39;97580.19;10329182;28;20491;-56
2022/08/31 12:46:17;;;;;;;16.60;13.82;;;;;;;19.09;95.67;97592.94;10328718;28;20575;-56
2022/08/31 12:51:40;;;;;;;20.00;14.43;;;;;;;18.97;95.65;97588.13;10328614;28;20073;-57
2022/08/31 12:56:54;;;;;;;20.55;14.57;;;;;;;18.72;96.50;97569.78;10327886;28;20474;-56
2022/08/31 13:01:53;;;;;;;21.50;16.23;;;;;;;18.62;98.49;97566.63;10329582;28;20577;-56
2022/08/31 13:06:52;;;;;;;23.48;17.50;;;;;;;18.67;99.56;97558.56;10327759;28;20080;-55
2022/08/31 13:11:54;;;;;;;23.55;17.25;;;;;;;18.73;100.00;97546.06;10336005;28;20064;-57
2022/08/31 13:17:14;;;;;;;25.60;19.55;;;;;;;18.86;100.00;97543.84;10336303;28;20459;-56
2022/08/31 13:22:18;;;;;;;29.17;20.02;;;;;;;18.88;100.00;97549.91;10336496;28;20061;-56
2022/08/31 13:27:24;;;;;;;24.83;18.42;;;;;;;18.77;100.00;97557.34;10335611;28;20069;-56
2022/08/31 13:32:24;;;;;;;28.88;21.13;;;;;;;18.84;100.00;97540.41;10336160;28;20057;-56
2022/08/31 13:37:30;;;;;;;27.73;20.77;;;;;;;18.85;100.00;97557.88;10335076;28;20535;-57
2022/08/31 13:42:31;;;;;;;27.35;20.52;;;;;;;19.03;100.00;97566.88;10336964;28;20069;-57
2022/08/31 13:47:35;;;;;;;27.85;19.35;;;;;;;19.22;100.00;97556.50;10333820;28;20662;-57
2022/08/31 13:52:36;;;;;;;25.00;17.67;;;;;;;19.48;100.00;97557.25;10335489;28;20085;-58
2022/08/31 13:57:37;;;;;;;24.77;18.70;;;;;;;19.78;100.00;97545.47;10335949;28;20065;-58
2022/08/31 14:02:37;;;;;;;24.85;18.75;;;;;;;20.04;100.00;97552.28;10335175;28;20068;-58
2022/08/31 14:07:42;;;;;;;26.42;20.20;;;;;;;20.18;100.00;97556.13;10334722;28;20073;-58
2022/08/31 14:12:59;;;;;;;26.08;20.40;;;;;;;20.25;99.48;97554.94;10334078;28;20052;-57
2022/08/31 14:18:08;;;;;;;25.63;20.40;;;;;;;20.28;99.43;97545.13;10334105;28;20065;-58
2022/08/31 14:23:26;;;;;;;27.30;18.95;;;;;;;20.29;98.71;97549.47;10335250;28;20507;-58
2022/08/31 14:28:40;;;;;;;24.45;18.98;;;;;;;20.27;98.21;97559.22;10334457;28;20153;-56
2022/08/31 14:33:46;;;;;;;24.65;19.25;;;;;;;20.14;97.62;97560.69;10336413;28;20874;-57
2022/08/31 14:38:47;;;;;;;26.52;19.13;;;;;;;20.07;98.05;97568.00;10335653;28;20084;-56
2022/08/31 14:43:46;;;;;;;25.52;20.13;;;;;;;20.01;97.87;97570.88;10327646;28;20074;-57
2022/08/31 14:48:45;;;;;;;23.75;17.40;;;;;;;20.00;97.42;97569.16;10309994;28;20084;-57
2022/08/31 14:53:44;;;;;;;25.90;18.38;;;;;;;20.00;97.59;97578.81;10327056;28;20041;-57
2022/08/31 14:58:48;;;;;;;26.42;18.67;;;;;;;19.97;96.06;97568.44;10334599;28;20025;-56
2022/08/31 15:03:47;;;;;;;22.38;18.73;;;;;;;19.94;96.15;97563.28;10334113;28;20132;-56
2022/08/31 15:08:47;;;;;;;23.42;19.35;;;;;;;20.03;96.89;97571.66;10332545;28;20080;-56
2022/08/31 15:13:46;;;;;;;23.35;18.88;;;;;;;20.07;96.92;97577.63;10319583;28;20750;-56
2022/08/31 15:18:45;;;;;;;25.45;17.80;;;;;;;20.11;97.34;97558.16;10315381;28;20465;-57
2022/08/31 15:23:47;;;;;;;29.60;18.75;;;;;;;20.15;97.49;97551.00;10314118;28;20455;-56
2022/08/31 15:28:51;;;;;;;25.42;19.52;;;;;;;20.15;97.86;97541.31;10314981;28;20117;-56
2022/08/31 15:33:54;;;;;;;31.45;21.38;;;;;;;20.22;97.90;97544.53;10324072;28;20073;-57
2022/08/31 15:38:55;;;;;;;30.67;21.23;;;;;;;20.20;97.70;97547.22;10329815;28;20088;-56
2022/08/31 15:43:55;;;;;;;27.35;21.85;;;;;;;20.16;97.80;97550.06;10321249;28;20081;-56
2022/08/31 15:48:54;;;;;;;27.20;23.40;;;;;;;20.05;97.91;97542.63;10330674;28;20133;-57
2022/08/31 15:53:57;;;;;;;34.67;26.70;;;;;;;19.96;98.13;97548.28;10323753;28;20505;-57
2022/08/31 15:58:57;;;;;;;35.60;26.88;;;;;;;19.83;98.13;97535.63;10327575;28;20069;-57
2022/08/31 16:03:57;;;;;;;31.20;23.25;;;;;;;19.73;98.41;97529.03;10317424;28;20084;-57
2022/08/31 16:08:56;;;;;;;28.17;22.65;;;;;;;19.65;98.28;97504.81;10330341;28;20124;-57
2022/08/31 16:13:58;;;;;;;29.52;22.95;;;;;;;19.67;98.23;97500.31;10328384;28;20069;-57
2022/08/31 16:18:57;;;;;;;31.20;23.10;;;;;;;19.62;98.54;97500.50;10330556;28;20072;-57
2022/08/31 16:23:59;;;;;;;34.50;24.35;;;;;;;19.62;98.89;97499.66;10329524;28;20047;-56
2022/08/31 16:29:00;;;;;;;30.33;23.38;;;;;;;19.58;99.03;97501.56;10326287;28;20471;-57
2022/08/31 16:33:59;;;;;;;29.00;23.60;;;;;;;19.55;98.87;97492.91;10330167;28;20080;-57
2022/08/31 16:39:00;;;;;;;34.85;24.23;;;;;;;19.52;99.09;97490.41;10330935;28;20036;-57
2022/08/31 16:44:00;;;;;;;30.85;24.42;;;;;;;19.47;99.26;97495.00;10328875;28;20080;-57
2022/08/31 16:54:17;;;;;;;33.22;25.23;;;;;;;19.33;99.20;97485.03;10328678;28;20072;-56
2022/08/31 16:59:16;;;;;;;38.45;26.98;;;;;;;19.23;99.19;97489.81;10328351;28;20080;-56
2022/08/31 17:04:18;;;;;;;32.53;24.67;;;;;;;19.14;99.13;97495.44;10324515;28;20036;-56
2022/08/31 17:09:23;;;;;;;33.13;25.60;;;;;;;19.09;99.51;97497.38;10325117;28;20069;-56
2022/08/31 17:14:34;;;;;;;34.67;26.70;;;;;;;19.02;99.78;97489.75;10326012;28;20141;-57
2022/08/31 17:19:35;;;;;;;35.30;27.38;;;;;;;18.86;100.00;97498.31;10328490;28;20099;-56
2022/08/31 17:24:41;;;;;;;35.15;27.60;;;;;;;18.84;100.00;97500.97;10316004;28;20069;-56
2022/08/31 17:29:46;;;;;;;36.53;27.67;;;;;;;18.82;100.00;97501.03;10314570;28;20088;-56
2022/08/31 17:34:50;;;;;;;38.90;26.60;;;;;;;18.63;100.00;97486.84;10321580;28;20076;-56
2022/08/31 17:39:51;;;;;;;39.63;27.15;;;;;;;18.64;100.00;97524.47;10310199;28;20124;-57
2022/08/31 17:44:51;;;;;;;35.50;26.67;;;;;;;18.58;100.00;97520.31;10315767;28;20602;-57
2022/08/31 17:49:51;;;;;;;33.70;25.52;;;;;;;18.53;100.00;97532.78;10320016;28;20069;-56
2022/08/31 17:54:50;;;;;;;37.05;25.52;;;;;;;18.45;100.00;97543.56;10317833;28;20089;-56
2022/08/31 17:59:50;;;;;;;33.92;25.67;;;;;;;18.36;100.00;97544.75;10328500;28;20076;-56
2022/08/31 18:04:51;;;;;;;41.60;28.45;;;;;;;18.31;100.00;97545.81;10326081;28;20087;-56
2022/08/31 18:09:50;;;;;;;40.35;28.27;;;;;;;18.33;100.00;97565.00;10317118;28;20137;-56
2022/08/31 18:14:49;;;;;;;36.47;26.67;;;;;;;18.29;100.00;97558.13;10332797;28;20073;-56
2022/08/31 18:19:48;;;;;;;34.83;27.08;;;;;;;18.32;100.00;97576.44;10334112;28;20060;-57
2022/08/31 18:24:47;;;;;;;36.00;25.70;;;;;;;18.31;100.00;97572.09;10333733;28;20091;-57
2022/08/31 18:29:46;;;;;;;34.28;25.33;;;;;;;18.31;100.00;97585.22;10327891;28;20446;-58
2022/08/31 18:34:46;;;;;;;33.53;25.17;;;;;;;18.28;100.00;97578.31;10324584;28;20084;-56
2022/08/31 18:45:14;;;;;;;38.92;26.65;;;;;;;18.09;100.00;97582.47;10329508;28;20085;-57
2022/08/31 18:50:14;;;;;;;42.55;26.45;;;;;;;18.09;100.00;97599.09;10322913;28;20156;-57
2022/08/31 18:55:14;;;;;;;37.25;25.50;;;;;;;18.08;100.00;97597.38;10333078;28;20073;-57
2022/08/31 19:00:15;;;;;;;41.00;26.77;;;;;;;18.03;100.00;97585.31;10332250;28;20073;-57
2022/08/31 19:05:14;;;;;;;35.78;24.80;;;;;;;17.95;100.00;97582.94;10332754;28;20071;-58
2022/08/31 19:10:14;;;;;;;33.95;24.02;;;;;;;17.88;100.00;97589.31;10332139;28;20120;-58
2022/08/31 19:15:13;;;;;;;32.03;23.67;;;;;;;17.77;100.00;97572.13;10332523;28;20068;-56
2022/08/31 19:20:12;;;;;;;36.83;24.90;;;;;;;17.74;100.00;97568.72;10332120;28;20542;-57
2022/08/31 19:25:11;;;;;;;38.30;25.45;;;;;;;17.65;100.00;97575.13;10330722;28;20080;-57
2022/08/31 19:30:11;;;;;;;41.25;26.75;;;;;;;17.55;100.00;97590.31;10331046;28;20076;-57
2022/08/31 19:35:10;;;;;;;44.85;28.40;;;;;;;17.50;100.00;97581.72;10331965;28;20053;-57
2022/08/31 19:40:15;;;;;;;40.90;26.75;;;;;;;17.49;100.00;97587.03;10331564;28;20068;-57
2022/08/31 19:45:18;;;;;;;43.28;27.58;;;;;;;17.47;100.00;97584.47;10357542;28;20080;-57
2022/08/31 19:50:17;;;;;;;45.25;29.35;;;;;;;17.47;100.00;97578.34;10321331;28;20068;-57
2022/08/31 19:55:17;;;;;;;47.50;30.55;;;;;;;17.47;100.00;97580.97;10328910;28;20037;-57
2022/08/31 20:00:16;;;;;;;50.17;31.55;;;;;;;17.46;100.00;97584.50;10325094;28;20064;-57
2022/08/31 20:05:15;;;;;;;55.50;34.65;;;;;;;17.45;100.00;97582.75;10340189;28;20064;-57
2022/08/31 20:10:14;;;;;;;59.63;34.70;;;;;;;17.48;100.00;97582.69;10353699;28;20049;-57
2022/08/31 20:15:14;;;;;;;55.83;32.63;;;;;;;17.52;100.00;97582.53;10329866;28;20042;-57
2022/08/31 20:20:13;;;;;;;47.95;30.65;;;;;;;17.55;100.00;97576.34;10328546;28;20513;-57
2022/08/31 20:25:13;;;;;;;50.83;31.70;;;;;;;17.58;100.00;97576.22;10317596;28;20449;-57
2022/08/31 20:30:12;;;;;;;46.13;29.85;;;;;;;17.60;100.00;97566.56;10324620;28;20073;-57
2022/08/31 20:35:12;;;;;;;47.05;30.73;;;;;;;17.62;100.00;97580.47;10329156;28;20075;-57
2022/08/31 20:40:15;;;;;;;47.70;29.65;;;;;;;17.59;100.00;97562.22;10330111;28;20550;-57
2022/08/31 20:45:14;;;;;;;40.88;28.20;;;;;;;17.60;100.00;97553.44;10328359;28;20084;-57
2022/08/31 20:50:13;;;;;;;45.70;30.20;;;;;;;17.65;100.00;97563.78;10328995;28;20064;-57
2022/08/31 20:55:13;;;;;;;49.33;30.08;;;;;;;17.59;100.00;97556.97;10329675;28;20064;-57
2022/08/31 21:00:12;;;;;;;44.08;30.48;;;;;;;17.54;100.00;97561.50;10328453;28;20583;-57
2022/08/31 21:05:14;;;;;;;45.05;29.80;;;;;;;17.49;100.00;97553.75;10328383;28;20076;-58
2022/08/31 21:10:13;;;;;;;51.80;29.63;;;;;;;17.43;100.00;97545.25;10328368;28;20606;-57
2022/08/31 21:15:12;;;;;;;49.95;29.98;;;;;;;17.43;100.00;97556.59;10327907;28;20451;-57
2022/08/31 21:20:11;;;;;;;50.80;31.20;;;;;;;17.40;100.00;97564.53;10327836;28;20191;-57
2022/08/31 21:25:11;;;;;;;49.40;30.75;;;;;;;17.40;100.00;97555.81;10328479;28;20523;-57
2022/08/31 21:30:10;;;;;;;51.28;32.25;;;;;;;17.40;100.00;97567.16;10330965;28;20073;-57
2022/08/31 21:35:11;;;;;;;54.50;31.38;;;;;;;17.40;100.00;97563.69;10336236;28;20068;-57
2022/08/31 21:40:10;;;;;;;49.15;31.23;;;;;;;17.43;100.00;97561.00;10336262;28;20061;-57
2022/08/31 21:45:09;;;;;;;47.35;30.92;;;;;;;17.43;100.00;97567.09;10335151;28;20081;-57
2022/08/31 21:50:09;;;;;;;57.15;31.80;;;;;;;17.41;100.00;97575.94;10335099;28;20061;-57
2022/08/31 21:55:12;;;;;;;44.78;31.58;;;;;;;17.39;100.00;97575.09;10335444;28;20494;-57
2022/08/31 22:00:15;;;;;;;51.08;31.90;;;;;;;17.43;100.00;97574.13;10335456;28;20488;-57
2022/08/31 22:05:14;;;;;;;47.45;30.67;;;;;;;17.44;100.00;97575.81;10333792;28;20471;-57
2022/08/31 22:10:13;;;;;;;52.08;30.85;;;;;;;17.42;100.00;97575.84;10332459;28;20139;-57
2022/08/31 22:15:15;;;;;;;45.55;31.35;;;;;;;17.42;100.00;97572.38;10332104;28;20038;-57
2022/08/31 22:20:16;;;;;;;49.28;29.80;;;;;;;17.41;100.00;97561.03;10330126;28;20455;-57
2022/08/31 22:25:15;;;;;;;48.40;30.85;;;;;;;17.46;100.00;97546.00;10325260;28;20124;-57
2022/08/31 22:30:14;;;;;;;44.92;28.88;;;;;;;17.53;100.00;97541.41;10328598;28;20164;-57
2022/08/31 22:35:14;;;;;;;45.65;29.73;;;;;;;17.60;100.00;97542.09;10330285;28;20093;-57
2022/08/31 22:40:20;;;;;;;43.75;28.77;;;;;;;17.66;100.00;97534.00;10332380;28;20067;-57
2022/08/31 22:45:22;;;;;;;39.30;28.13;;;;;;;17.71;100.00;97530.31;10332226;28;20120;-57
2022/08/31 22:50:21;;;;;;;34.10;25.75;;;;;;;17.76;100.00;97520.56;10332588;28;20077;-57
2022/08/31 22:55:20;;;;;;;42.70;28.70;;;;;;;17.77;100.00;97503.88;10333686;28;20069;-58
2022/08/31 23:00:23;;;;;;;38.95;27.90;;;;;;;17.68;100.00;97512.06;10332510;28;20499;-57
2022/08/31 23:05:23;;;;;;;76.47;39.30;;;;;;;17.56;100.00;97505.44;10333203;28;20073;-57
2022/08/31 23:10:22;;;;;;;76.30;36.90;;;;;;;17.61;100.00;97501.81;10332589;28;20064;-57
2022/08/31 23:15:21;;;;;;;74.10;36.78;;;;;;;17.60;100.00;97489.59;10332261;28;20073;-57
2022/08/31 23:20:23;;;;;;;76.40;39.25;;;;;;;17.57;100.00;97480.06;10331545;28;20088;-57